Main page
METAR-TAF:

METAR-TAF

Airports :

Maharana Pratap Airport

Udaipur, India

latitude: 24-37-04N, longitude: 73-53-46E, elevation: 513 m

Current weather observation

The report was made 44 minutes ago, at 13:00 UTC
Wind 2 kt from the South/Southeast
Temperature 23°C
Humidity 36%
Pressure 1014 hPa
Visibility: 5000 m
haze

METAR: VAUD 211300Z 16002KT 5000 HZ NSC 23/07 Q1014 NOSIG

Time: 19:14 (13:44 UTC)

Forecast

The report was made 2 hours and 44 minutes ago, at 11:00 UTC
Forecast valid from 21 at 12 UTC to 21 at 21 UTC
Wind 3 kt from variable directions
Visibility: 3000 m
haze

TAF: VAUD 211100Z 2112/2121 VRB03KT 3000 HZ NSC

Weather observations and forecasts of more than 4000 airports (METAR and TAF reports).

The available stations are represented by yellow and red dots on the map.

Hover mouse over dot to see the name of the station.

Then click to see weather observations and forecasts.

To change the map : click on the green buttons with a black cross to zoom in, on the green button with a dash to zoom out, or on the green arrows for adjacent maps.


METAR-TAF: